Time;durP1;ratioP1;P1;durP2;ratioP2;P2;SDS_P1;SDS_P2;PMS_P1;PMS_P2;Temp;Humidity;BMP_temperature;BMP_pressure;BME280_temperature;BME280_humidity;BME280_pressure;Samples;Min_cycle;Max_cycle;Signal;HPM_P1;HPM_P2
2023/09/25 00:00:33;;;;;;;10.45;4.20;;;11.70;99.90;;;;;;6182897;23;20013;-83
2023/09/25 00:03:00;;;;;;;8.70;4.00;;;11.70;99.90;;;;;;6183629;23;20373;-83
2023/09/25 00:05:27;;;;;;;8.93;3.80;;;11.60;99.90;;;;;;6182960;23;20051;-83
2023/09/25 00:07:54;;;;;;;9.48;4.22;;;11.60;99.90;;;;;;6181877;23;20039;-83
2023/09/25 00:10:23;;;;;;;9.50;4.07;;;11.60;99.90;;;;;;6183783;23;20430;-83
2023/09/25 00:12:48;;;;;;;10.40;3.78;;;12.80;99.90;;;;;;6182830;23;20142;-83
2023/09/25 00:15:14;;;;;;;10.00;3.58;;;12.30;99.90;;;;;;6182501;23;20083;-83
2023/09/25 00:17:42;;;;;;;8.68;3.90;;;11.60;99.90;;;;;;6182908;23;20044;-83
2023/09/25 00:20:10;;;;;;;7.97;3.38;;;11.60;99.90;;;;;;6183430;23;20017;-84
2023/09/25 00:22:37;;;;;;;8.93;3.70;;;11.60;99.90;;;;;;6182170;23;20032;-83
2023/09/25 00:25:03;;;;;;;9.65;3.88;;;11.70;99.90;;;;;;6183284;23;20454;-83
2023/09/25 00:27:31;;;;;;;9.45;3.50;;;11.70;99.90;;;;;;6183251;23;20079;-83
2023/09/25 00:29:57;;;;;;;10.13;3.97;;;11.80;99.90;;;;;;6183962;23;20020;-83
2023/09/25 00:32:23;;;;;;;9.38;3.45;;;12.60;99.90;;;;;;6185043;23;20017;-83
2023/09/25 00:34:49;;;;;;;8.75;3.28;;;12.20;99.90;;;;;;6181428;23;20005;-83
2023/09/25 00:37:14;;;;;;;8.50;3.70;;;11.70;99.90;;;;;;6182888;23;20040;-83
2023/09/25 00:39:42;;;;;;;8.23;3.63;;;11.80;99.90;;;;;;6182891;23;20009;-83
2023/09/25 00:42:08;;;;;;;8.95;3.67;;;11.80;99.90;;;;;;6182200;23;20464;-83
2023/09/25 00:44:52;;;;;;;9.70;4.00;;;11.80;99.90;;;;;;6182727;23;20061;-83
2023/09/25 00:47:17;;;;;;;7.68;3.38;;;11.80;99.90;;;;;;6182736;23;20017;-83
2023/09/25 00:49:43;;;;;;;8.95;3.70;;;11.80;99.90;;;;;;6181549;23;20040;-83
2023/09/25 00:52:09;;;;;;;11.05;4.03;;;13.00;99.90;;;;;;6182154;23;20017;-83
2023/09/25 00:54:35;;;;;;;8.77;3.92;;;12.30;99.90;;;;;;6183905;23;20394;-83
2023/09/25 00:57:01;;;;;;;8.43;3.45;;;12.20;99.90;;;;;;6187300;23;20446;-82
2023/09/25 00:59:27;;;;;;;8.13;3.70;;;12.90;99.90;;;;;;6214559;23;20016;-83
2023/09/25 01:01:53;;;;;;;8.15;3.40;;;13.20;99.90;;;;;;6187618;23;20016;-83
2023/09/25 01:04:19;;;;;;;9.05;3.50;;;11.80;99.90;;;;;;6186901;23;20044;-83
2023/09/25 01:06:45;;;;;;;8.25;3.63;;;12.70;99.90;;;;;;6187430;23;20017;-83
2023/09/25 01:09:12;;;;;;;9.50;3.75;;;11.80;99.90;;;;;;6189279;23;20028;-83
2023/09/25 01:11:39;;;;;;;8.20;3.42;;;11.80;99.90;;;;;;6188616;23;20067;-82
2023/09/25 01:14:05;;;;;;;7.85;3.40;;;11.90;99.90;;;;;;6189025;23;20454;-83
2023/09/25 01:16:31;;;;;;;8.55;3.60;;;11.70;99.90;;;;;;6189605;23;20020;-83
2023/09/25 01:18:57;;;;;;;8.90;3.70;;;11.80;99.90;;;;;;6188408;23;20315;-83
2023/09/25 01:21:24;;;;;;;9.27;4.03;;;11.60;99.90;;;;;;6189981;23;20017;-83
2023/09/25 01:23:50;;;;;;;11.65;3.90;;;11.60;99.90;;;;;;6189429;23;20020;-83
2023/09/25 01:26:15;;;;;;;9.35;4.20;;;11.50;99.90;;;;;;6188614;23;20016;-83
2023/09/25 01:28:41;;;;;;;8.60;3.85;;;11.50;99.90;;;;;;6189116;23;20013;-83
2023/09/25 01:31:07;;;;;;;8.90;3.60;;;11.50;99.90;;;;;;6188509;23;20445;-83
2023/09/25 01:33:33;;;;;;;7.97;3.80;;;11.50;99.90;;;;;;6189592;23;20095;-83
2023/09/25 01:36:04;;;;;;;11.80;4.10;;;11.40;99.90;;;;;;6189322;23;20377;-83
2023/09/25 01:38:36;;;;;;;9.18;3.78;;;11.40;99.90;;;;;;6188679;23;20123;-83
2023/09/25 01:41:02;;;;;;;10.52;4.18;;;11.80;99.90;;;;;;6189586;23;20012;-82
2023/09/25 01:43:46;;;;;;;9.35;3.80;;;11.30;99.90;;;;;;6189431;23;20015;-82
2023/09/25 01:46:15;;;;;;;9.27;4.10;;;11.30;99.90;;;;;;6188583;23;20063;-82
2023/09/25 01:48:40;;;;;;;9.63;3.95;;;11.30;99.90;;;;;;6188932;23;20337;-82
2023/09/25 01:51:18;;;;;;;9.07;4.32;;;11.20;99.90;;;;;;6189463;23;20021;-83
2023/09/25 01:53:46;;;;;;;9.35;4.22;;;11.50;99.90;;;;;;6188536;23;20021;-82
2023/09/25 01:56:26;;;;;;;10.25;4.30;;;12.50;99.90;;;;;;6208209;23;20092;-83
2023/09/25 01:58:58;;;;;;;11.38;3.92;;;11.10;99.90;;;;;;6183398;23;20021;-83
2023/09/25 02:01:29;;;;;;;10.52;4.05;;;12.40;99.90;;;;;;6183236;23;20024;-82
2023/09/25 02:03:55;;;;;;;9.18;4.05;;;12.50;99.90;;;;;;6184031;23;20096;-82
2023/09/25 02:06:21;;;;;;;9.57;4.38;;;11.10;99.90;;;;;;6182595;23;20052;-82
2023/09/25 02:08:47;;;;;;;10.43;4.47;;;11.10;99.90;;;;;;6183639;23;20015;-82
2023/09/25 02:11:22;;;;;;;9.15;4.22;;;11.10;99.90;;;;;;6183861;23;20088;-82
2023/09/25 02:13:47;;;;;;;10.32;4.15;;;11.10;99.90;;;;;;6182851;23;20017;-82
2023/09/25 02:16:13;;;;;;;9.82;4.25;;;12.10;99.90;;;;;;6183883;23;20083;-82
2023/09/25 02:18:38;;;;;;;11.25;4.60;;;11.30;99.90;;;;;;6183452;23;20020;-82
2023/09/25 02:21:04;;;;;;;11.20;4.20;;;11.60;99.90;;;;;;6182910;23;20438;-82
2023/09/25 02:23:30;;;;;;;9.25;4.40;;;11.00;99.90;;;;;;6184090;23;20107;-82
2023/09/25 02:25:55;;;;;;;9.35;4.18;;;11.00;99.90;;;;;;6183882;23;20019;-82
2023/09/25 02:28:21;;;;;;;8.68;4.32;;;11.00;99.90;;;;;;6182997;23;20107;-82
2023/09/25 02:30:46;;;;;;;10.43;4.40;;;11.40;99.90;;;;;;6183739;23;20076;-82
2023/09/25 02:33:12;;;;;;;9.15;4.30;;;11.10;99.90;;;;;;6184033;23;20015;-82
2023/09/25 02:35:38;;;;;;;10.95;4.15;;;11.00;99.90;;;;;;6182752;23;20024;-82
2023/09/25 02:38:05;;;;;;;10.13;4.60;;;10.90;99.90;;;;;;6183897;23;20059;-83
2023/09/25 02:40:31;;;;;;;9.40;4.18;;;11.10;99.90;;;;;;6183982;23;20481;-82
2023/09/25 02:42:56;;;;;;;9.18;4.10;;;10.90;99.90;;;;;;6182788;23;20013;-82
2023/09/25 02:45:22;;;;;;;9.93;4.05;;;10.90;99.90;;;;;;6185248;23;20150;-82
2023/09/25 02:47:48;;;;;;;9.80;4.20;;;11.20;99.90;;;;;;6183562;23;20020;-83
2023/09/25 02:50:14;;;;;;;10.10;4.30;;;10.90;99.90;;;;;;6183044;23;20017;-82
2023/09/25 02:52:42;;;;;;;10.77;4.00;;;11.10;99.90;;;;;;6183615;23;20052;-82
2023/09/25 02:55:09;;;;;;;8.80;4.05;;;10.90;99.90;;;;;;6183680;23;20021;-82
2023/09/25 02:57:35;;;;;;;9.65;4.47;;;10.90;99.90;;;;;;6182804;23;20024;-82
2023/09/25 03:00:01;;;;;;;10.05;4.25;;;11.50;99.90;;;;;;6183223;23;20016;-82
2023/09/25 03:02:26;;;;;;;10.75;4.25;;;10.80;99.90;;;;;;6183003;23;20028;-82
2023/09/25 03:04:52;;;;;;;11.05;4.60;;;10.80;99.90;;;;;;6183531;23;20075;-82
2023/09/25 03:07:19;;;;;;;9.85;4.40;;;10.80;99.90;;;;;;6183778;23;20331;-82
2023/09/25 03:09:45;;;;;;;11.05;4.10;;;10.80;99.90;;;;;;6182891;23;20595;-82
2023/09/25 03:12:10;;;;;;;10.80;4.45;;;10.80;99.90;;;;;;6184404;23;20044;-82
2023/09/25 03:14:36;;;;;;;10.43;4.47;;;10.80;99.90;;;;;;6183277;23;20390;-83
2023/09/25 03:17:02;;;;;;;9.77;4.25;;;11.20;99.90;;;;;;6182568;23;20088;-82
2023/09/25 03:19:31;;;;;;;10.45;4.95;;;11.00;99.90;;;;;;6183482;23;20450;-82
2023/09/25 03:21:56;;;;;;;9.75;4.75;;;10.80;99.90;;;;;;6183215;23;20342;-82
2023/09/25 03:24:22;;;;;;;10.57;4.25;;;10.80;99.90;;;;;;6181759;23;20021;-82
2023/09/25 03:26:50;;;;;;;8.93;4.32;;;11.20;99.90;;;;;;6183309;23;20017;-82
2023/09/25 03:29:16;;;;;;;9.32;4.53;;;10.80;99.90;;;;;;6183033;23;20025;-82
2023/09/25 03:31:41;;;;;;;10.48;4.68;;;10.80;99.90;;;;;;6182090;23;20069;-82
2023/09/25 03:34:07;;;;;;;9.10;4.45;;;12.00;99.90;;;;;;6183487;23;20072;-82
2023/09/25 03:36:33;;;;;;;10.55;4.80;;;10.70;99.90;;;;;;6183423;23;20013;-82
2023/09/25 03:38:58;;;;;;;10.30;4.68;;;10.80;99.90;;;;;;6182580;23;20017;-82
2023/09/25 03:41:24;;;;;;;10.00;4.25;;;11.50;99.90;;;;;;6183445;23;20096;-82
2023/09/25 03:43:50;;;;;;;10.13;4.35;;;10.70;99.90;;;;;;6183000;23;20072;-82
2023/09/25 03:46:16;;;;;;;8.68;4.15;;;10.70;99.90;;;;;;6182576;23;20048;-82
2023/09/25 03:48:41;;;;;;;9.90;4.50;;;10.70;99.90;;;;;;6182665;23;20017;-82
2023/09/25 03:51:07;;;;;;;11.13;4.80;;;10.70;99.90;;;;;;6183353;23;20024;-83
2023/09/25 03:53:32;;;;;;;11.15;4.97;;;10.90;99.90;;;;;;6182389;23;20013;-82
2023/09/25 03:55:58;;;;;;;9.10;4.38;;;10.80;99.90;;;;;;6182897;23;20123;-82
2023/09/25 03:58:24;;;;;;;10.57;4.30;;;10.70;99.90;;;;;;6183396;23;20027;-82
2023/09/25 04:00:52;;;;;;;9.90;4.88;;;10.70;99.90;;;;;;6181242;23;20009;-82
2023/09/25 04:03:18;;;;;;;9.43;4.72;;;11.40;99.90;;;;;;6182532;23;20350;-83
2023/09/25 04:05:43;;;;;;;9.15;4.35;;;11.60;99.90;;;;;;6181125;23;20013;-82
2023/09/25 04:08:09;;;;;;;9.43;4.50;;;11.00;99.90;;;;;;6182729;23;20373;-82
2023/09/25 04:10:35;;;;;;;11.18;4.55;;;10.70;99.90;;;;;;6182944;23;20387;-83
2023/09/25 04:13:00;;;;;;;9.65;4.50;;;11.20;99.90;;;;;;6182077;23;20017;-82
2023/09/25 04:15:26;;;;;;;11.93;4.57;;;10.80;99.90;;;;;;6182986;23;20346;-82
2023/09/25 04:17:54;;;;;;;9.93;4.72;;;11.10;99.90;;;;;;6182320;23;20017;-82
2023/09/25 04:20:24;;;;;;;10.45;4.38;;;10.90;99.90;;;;;;6182378;23;20020;-82
2023/09/25 04:22:51;;;;;;;10.63;4.50;;;10.80;99.90;;;;;;6184115;23;20091;-82
2023/09/25 04:25:21;;;;;;;9.65;4.70;;;10.80;99.90;;;;;;6182985;23;20031;-83
2023/09/25 04:27:52;;;;;;;10.45;4.68;;;10.80;99.90;;;;;;6183683;23;20025;-82
2023/09/25 04:30:19;;;;;;;10.15;4.75;;;10.90;99.90;;;;;;6183273;23;20067;-82
2023/09/25 04:32:46;;;;;;;10.05;4.65;;;10.90;99.90;;;;;;6182898;23;20049;-82
2023/09/25 04:35:15;;;;;;;10.27;4.63;;;10.90;99.90;;;;;;6182229;23;20092;-82
2023/09/25 04:37:42;;;;;;;10.02;4.57;;;11.30;99.90;;;;;;6182278;23;20342;-82
2023/09/25 04:40:25;;;;;;;9.45;4.50;;;10.90;99.90;;;;;;6183229;23;20349;-82
2023/09/25 04:42:52;;;;;;;9.50;4.80;;;10.80;99.90;;;;;;6182545;23;20429;-82
2023/09/25 04:45:18;;;;;;;12.05;4.90;;;11.60;99.90;;;;;;6185100;23;20020;-82
2023/09/25 04:47:48;;;;;;;11.63;4.78;;;10.80;99.90;;;;;;6184367;23;20395;-82
2023/09/25 04:50:15;;;;;;;9.60;4.53;;;11.00;99.90;;;;;;6183980;23;20370;-83
2023/09/25 04:52:42;;;;;;;9.98;4.65;;;12.10;99.90;;;;;;6184324;23;20017;-82
2023/09/25 04:55:12;;;;;;;11.50;4.90;;;11.70;99.90;;;;;;6183794;23;20029;-83
2023/09/25 04:57:45;;;;;;;9.95;5.00;;;10.80;99.90;;;;;;6184488;23;20036;-80
2023/09/25 05:00:26;;;;;;;9.35;4.50;;;11.00;99.90;;;;;;6184479;23;20032;-81
2023/09/25 05:02:53;;;;;;;10.02;4.40;;;10.70;99.90;;;;;;6183797;23;20485;-80
2023/09/25 05:05:19;;;;;;;10.18;4.70;;;10.80;99.90;;;;;;6185280;23;20047;-81
2023/09/25 05:07:50;;;;;;;9.30;4.03;;;11.60;99.90;;;;;;6185536;23;20016;-80
2023/09/25 05:10:25;;;;;;;11.98;4.60;;;10.80;99.90;;;;;;6184141;23;20021;-80
2023/09/25 05:12:51;;;;;;;10.75;4.32;;;10.80;99.90;;;;;;6184538;23;20013;-80
2023/09/25 05:15:17;;;;;;;9.77;4.60;;;10.80;99.90;;;;;;6186643;23;20084;-80
2023/09/25 05:17:44;;;;;;;11.05;4.72;;;10.80;99.90;;;;;;6183720;23;20017;-80
2023/09/25 05:20:12;;;;;;;11.25;4.55;;;10.80;99.90;;;;;;6184926;23;20052;-79
2023/09/25 05:22:40;;;;;;;9.10;4.07;;;10.80;99.90;;;;;;6184360;23;20075;-81
2023/09/25 05:25:07;;;;;;;11.02;4.53;;;10.70;99.90;;;;;;6183485;23;20025;-80
2023/09/25 05:27:34;;;;;;;9.93;4.60;;;10.70;99.90;;;;;;6184759;23;20040;-80
2023/09/25 05:30:01;;;;;;;10.02;4.35;;;10.70;99.90;;;;;;6184638;23;20045;-80
2023/09/25 05:32:27;;;;;;;9.35;4.75;;;10.70;99.90;;;;;;6183857;23;20017;-80
2023/09/25 05:34:52;;;;;;;9.55;4.50;;;10.70;99.90;;;;;;6184463;23;20071;-80
2023/09/25 05:37:18;;;;;;;9.75;4.57;;;11.50;99.90;;;;;;6183134;23;20027;-80
2023/09/25 05:39:44;;;;;;;9.10;4.40;;;10.70;99.90;;;;;;6184414;23;20028;-79
2023/09/25 05:42:09;;;;;;;9.18;4.18;;;11.20;99.90;;;;;;6184535;23;20020;-80
2023/09/25 05:44:35;;;;;;;9.60;4.40;;;10.70;99.90;;;;;;6182851;23;20021;-80
2023/09/25 05:47:01;;;;;;;12.25;4.20;;;11.50;99.90;;;;;;6184489;23;20009;-80
2023/09/25 05:49:26;;;;;;;9.80;4.43;;;10.70;99.90;;;;;;6184141;23;20357;-80
2023/09/25 05:51:54;;;;;;;10.52;4.25;;;11.20;99.90;;;;;;6184853;23;20068;-80
2023/09/25 05:54:20;;;;;;;9.77;4.60;;;10.80;99.90;;;;;;6183568;23;20091;-80
2023/09/25 05:56:47;;;;;;;9.77;4.10;;;10.80;99.90;;;;;;6183801;23;20060;-80
2023/09/25 05:59:13;;;;;;;9.52;4.13;;;10.80;99.90;;;;;;6183437;23;20013;-80
2023/09/25 06:01:39;;;;;;;9.57;4.05;;;10.90;99.90;;;;;;6184153;23;20021;-79
2023/09/25 06:04:05;;;;;;;9.88;4.07;;;11.40;99.90;;;;;;6184407;23;20013;-79
2023/09/25 06:06:33;;;;;;;9.32;4.10;;;10.90;99.90;;;;;;6183600;23;20091;-79
2023/09/25 06:08:59;;;;;;;9.45;3.83;;;11.20;99.90;;;;;;6184084;23;20096;-80
2023/09/25 06:11:25;;;;;;;8.90;4.05;;;11.00;99.90;;;;;;6184282;23;20091;-80
2023/09/25 14:57:51;;;;;;;6.88;2.20;;;21.60;99.90;;;;;;6262049;22;1272342;-81
2023/09/25 15:02:52;;;;;;;7.57;2.30;;;23.20;99.90;;;;;;6284113;22;20072;-86
2023/09/25 15:05:21;;;;;;;7.53;2.10;;;23.50;99.90;;;;;;6311027;22;20116;-86
2023/09/25 15:07:59;;;;;;;7.47;2.22;;;23.80;99.90;;;;;;6311883;22;20026;-86
2023/09/25 15:10:36;;;;;;;7.75;2.33;;;24.00;99.50;;;;;;6311681;22;20007;-86
2023/09/25 15:13:17;;;;;;;7.78;2.10;;;24.10;99.90;;;;;;6313064;22;20011;-86
2023/09/25 15:15:50;;;;;;;6.95;2.13;;;24.10;99.90;;;;;;6312512;22;20492;-87
2023/09/25 15:18:16;;;;;;;8.45;2.13;;;24.20;99.90;;;;;;6319396;22;20038;-85
2023/09/25 15:25:02;;;;;;;8.15;2.20;;;24.20;99.30;;;;;;6345015;22;20060;-84
2023/09/25 15:30:55;;;;;;;6.90;2.30;;;23.40;99.90;;;;;;6344338;22;20041;-85
2023/09/25 15:33:21;;;;;;;6.63;2.22;;;23.90;99.90;;;;;;6299896;22;20316;-85
2023/09/25 15:40:53;;;;;;;7.70;2.35;;;24.20;99.90;;;;;;6301754;22;20091;-84
2023/09/25 15:43:17;;;;;;;8.10;2.30;;;23.70;98.00;;;;;;6311040;22;20015;-84
2023/09/25 15:49:33;;;;;;;7.03;2.35;;;22.20;99.90;;;;;;6314740;22;20192;-84
2023/09/25 15:51:59;;;;;;;7.10;2.17;;;22.50;99.90;;;;;;6312509;22;20026;-84
2023/09/25 15:54:27;;;;;;;7.22;2.10;;;23.00;99.90;;;;;;6313063;22;20015;-84
2023/09/25 15:56:53;;;;;;;5.85;1.90;;;23.20;99.90;;;;;;6311513;22;20037;-84
2023/09/25 15:59:19;;;;;;;7.57;1.90;;;23.10;99.90;;;;;;6305047;22;20450;-84
2023/09/25 16:01:56;;;;;;;7.28;2.05;;;22.80;99.90;;;;;;6306371;22;20019;-84
2023/09/25 16:04:22;;;;;;;6.65;2.20;;;22.30;99.90;;;;;;6304960;22;20060;-85
2023/09/25 16:06:56;;;;;;;8.30;2.38;;;22.00;99.90;;;;;;6306545;22;20027;-84
2023/09/25 16:09:22;;;;;;;7.13;2.25;;;21.60;99.90;;;;;;6306173;22;20542;-84
2023/09/25 16:11:56;;;;;;;8.77;2.30;;;21.30;99.90;;;;;;6305277;22;20450;-84
2023/09/25 16:14:21;;;;;;;7.40;2.15;;;21.30;99.90;;;;;;6306235;22;20090;-85
2023/09/25 16:16:53;;;;;;;6.10;2.08;;;21.10;99.90;;;;;;6308201;22;20363;-84
2023/09/25 16:19:20;;;;;;;5.80;1.90;;;21.00;99.90;;;;;;6305746;22;20019;-84
2023/09/25 16:21:49;;;;;;;7.55;2.10;;;20.90;99.90;;;;;;6306430;22;20015;-84
2023/09/25 16:32:23;;;;;;;7.57;2.28;;;20.70;99.90;;;;;;6306870;22;20011;-83
2023/09/25 16:35:20;;;;;;;7.45;2.28;;;21.10;99.90;;;;;;6305550;22;20022;-84
2023/09/25 16:41:49;;;;;;;8.30;2.08;;;20.30;99.90;;;;;;6146220;22;20095;-84
2023/09/25 16:48:16;;;;;;;6.13;2.10;;;20.00;99.90;;;;;;6309810;22;20460;-84
2023/09/25 16:50:44;;;;;;;7.63;2.20;;;19.80;99.90;;;;;;6311305;22;20098;-85
2023/09/25 16:56:57;;;;;;;8.35;2.15;;;19.70;99.90;;;;;;6312346;22;20128;-84
2023/09/25 16:59:22;;;;;;;6.53;2.17;;;19.50;99.90;;;;;;6305039;22;20019;-84
2023/09/25 17:01:56;;;;;;;5.60;2.05;;;19.40;99.90;;;;;;6305142;22;20046;-84
2023/09/25 17:04:21;;;;;;;;;;;19.30;99.90;;;;;;6305447;22;20316;-84
2023/09/25 17:06:47;;;;;;;7.55;2.10;;;19.20;99.90;;;;;;6305491;22;19926;-84
2023/09/25 17:09:16;;;;;;;6.63;2.40;;;19.10;99.90;;;;;;6304215;22;20008;-84
2023/09/25 17:11:42;;;;;;;9.43;2.38;;;19.00;99.90;;;;;;6305826;22;20018;-84
2023/09/25 17:14:10;;;;;;;6.57;2.20;;;18.90;99.90;;;;;;6305134;22;20111;-84
2023/09/25 17:16:36;;;;;;;8.32;2.75;;;18.70;99.90;;;;;;6304838;22;20023;-85
2023/09/25 17:19:37;;;;;;;8.15;2.17;;;18.90;99.90;;;;;;6305922;22;20065;-84
2023/09/25 17:22:20;;;;;;;8.98;2.40;;;18.50;99.90;;;;;;6304126;22;20015;-84
2023/09/25 17:24:45;;;;;;;8.88;2.15;;;18.20;99.90;;;;;;6305651;22;20023;-84
2023/09/25 17:27:20;;;;;;;6.78;2.33;;;18.10;99.90;;;;;;6302300;22;20015;-83
2023/09/25 17:29:46;;;;;;;8.60;2.30;;;18.00;99.90;;;;;;6304488;22;20015;-84
2023/09/25 17:32:14;;;;;;;7.25;2.20;;;17.80;99.90;;;;;;6304487;22;20098;-84
2023/09/25 17:37:55;;;;;;;6.95;2.60;;;17.50;99.90;;;;;;6283393;22;20026;-84
2023/09/25 17:40:21;;;;;;;7.07;2.33;;;17.90;99.90;;;;;;6304287;22;20015;-84
2023/09/25 17:42:47;;;;;;;7.63;2.50;;;17.20;99.90;;;;;;6304094;22;20023;-84
2023/09/25 17:45:12;;;;;;;7.30;2.60;;;17.10;99.90;;;;;;6304932;22;20016;-84
2023/09/25 17:47:39;;;;;;;7.32;2.72;;;17.00;99.90;;;;;;6305083;22;20018;-84
2023/09/25 17:50:07;;;;;;;7.07;2.70;;;16.90;99.90;;;;;;6304034;22;20056;-84
2023/09/25 17:52:34;;;;;;;8.38;2.60;;;16.70;99.90;;;;;;6305102;22;20098;-84
2023/09/25 17:54:59;;;;;;;7.72;2.50;;;16.60;99.90;;;;;;6305307;22;20061;-85
2023/09/25 17:57:25;;;;;;;7.50;2.40;;;16.50;99.90;;;;;;6303579;22;20019;-84
2023/09/25 17:59:53;;;;;;;8.48;2.65;;;16.50;99.90;;;;;;6305409;22;20145;-84
2023/09/25 18:02:19;;;;;;;8.63;2.30;;;16.40;99.90;;;;;;6304636;22;20042;-84
2023/09/25 18:04:45;;;;;;;7.50;2.55;;;16.30;99.90;;;;;;6304015;22;20064;-84
2023/09/25 18:07:10;;;;;;;7.38;2.45;;;16.20;99.90;;;;;;6304451;22;20069;-84
2023/09/25 18:09:36;;;;;;;7.45;2.50;;;16.50;99.90;;;;;;6305195;22;20011;-84
2023/09/25 18:12:01;;;;;;;7.32;2.53;;;16.00;99.90;;;;;;6304208;22;20088;-85
2023/09/25 18:14:27;;;;;;;7.50;2.60;;;15.90;99.90;;;;;;6304793;22;20011;-85
2023/09/25 18:16:53;;;;;;;7.60;2.47;;;16.20;99.90;;;;;;6305422;22;20528;-85
2023/09/25 18:19:27;;;;;;;7.90;2.55;;;15.70;99.90;;;;;;6304504;22;20090;-85
2023/09/25 18:41:16;;;;;;;9.13;2.70;;;15.30;99.90;;;;;;6309179;22;20098;-87
2023/09/25 18:43:42;;;;;;;8.95;2.80;;;15.70;99.90;;;;;;6309863;22;20021;-87
2023/09/25 18:46:09;;;;;;;9.57;2.85;;;15.10;99.90;;;;;;6308785;22;20022;-86
2023/09/25 18:48:36;;;;;;;7.68;2.55;;;15.10;99.90;;;;;;6310225;22;20449;-87
2023/09/25 18:51:05;;;;;;;7.30;2.55;;;15.10;99.90;;;;;;6309973;22;20089;-87
2023/09/25 18:53:37;;;;;;;8.20;2.70;;;15.00;99.90;;;;;;6308974;22;20011;-87
2023/09/25 18:56:44;;;;;;;8.52;2.80;;;14.90;99.90;;;;;;6309493;22;20516;-87
2023/09/25 18:59:15;;;;;;;9.23;3.05;;;14.90;99.90;;;;;;6309660;22;20085;-85
2023/09/25 19:02:08;;;;;;;8.48;3.10;;;15.60;99.90;;;;;;6308975;22;20085;-87
2023/09/25 19:04:38;;;;;;;8.38;3.00;;;14.30;99.90;;;;;;6309327;22;20018;-85
2023/09/25 19:11:25;;;;;;;7.85;3.20;;;14.60;99.90;;;;;;6310175;22;20350;-86
2023/09/25 19:13:54;;;;;;;8.38;2.95;;;14.50;99.90;;;;;;6309370;22;20022;-86
2023/09/25 19:16:53;;;;;;;8.68;3.00;;;14.40;99.90;;;;;;6309369;22;20021;-84
2023/09/25 19:19:18;;;;;;;7.85;2.90;;;14.40;99.90;;;;;;6309216;22;20063;-84
2023/09/25 19:21:56;;;;;;;8.35;3.10;;;15.50;99.90;;;;;;6309240;22;20401;-84
2023/09/25 19:24:43;;;;;;;8.13;3.13;;;14.30;99.90;;;;;;6309599;22;20465;-84
2023/09/25 19:27:09;;;;;;;7.88;3.00;;;15.40;99.90;;;;;;6309321;22;20015;-85
2023/09/25 19:29:35;;;;;;;8.05;2.90;;;14.20;99.90;;;;;;6306590;22;20011;-85
2023/09/25 19:32:00;;;;;;;9.23;2.95;;;14.10;99.90;;;;;;6309807;22;20018;-85
2023/09/25 19:34:26;;;;;;;8.82;2.85;;;14.80;99.90;;;;;;6311450;22;20346;-85
2023/09/25 19:36:52;;;;;;;8.20;2.80;;;14.00;99.90;;;;;;6311540;22;20470;-85
2023/09/25 19:39:17;;;;;;;7.60;3.00;;;14.00;99.90;;;;;;6338929;22;20069;-85
2023/09/25 19:41:43;;;;;;;7.93;2.90;;;14.20;99.90;;;;;;6311035;22;20098;-85
2023/09/25 19:44:09;;;;;;;8.45;3.08;;;15.10;99.90;;;;;;6309513;22;20387;-85
2023/09/25 19:46:35;;;;;;;9.82;3.10;;;13.90;99.90;;;;;;6310996;22;20023;-85
2023/09/25 19:49:01;;;;;;;9.00;3.08;;;14.00;99.90;;;;;;6311306;22;20070;-85
2023/09/25 19:51:29;;;;;;;8.27;3.10;;;13.90;99.90;;;;;;6310506;22;20017;-85
2023/09/25 19:53:59;;;;;;;11.95;3.58;;;13.80;99.90;;;;;;6311694;22;20049;-85
2023/09/25 19:56:25;;;;;;;8.07;3.00;;;15.00;99.90;;;;;;6337979;22;20019;-85
2023/09/25 19:58:50;;;;;;;7.88;2.85;;;13.80;99.90;;;;;;6311183;22;20007;-85
2023/09/25 20:01:22;;;;;;;9.45;3.17;;;13.80;99.90;;;;;;6311032;22;20346;-85
2023/09/25 20:03:48;;;;;;;10.50;3.40;;;14.30;99.90;;;;;;6310742;22;20011;-85
2023/09/25 20:06:13;;;;;;;8.50;3.20;;;13.70;99.90;;;;;;6311086;22;20018;-86
2023/09/25 20:08:39;;;;;;;9.38;3.10;;;13.70;99.90;;;;;;6311674;22;20037;-85
2023/09/25 20:11:05;;;;;;;8.10;3.17;;;14.90;99.90;;;;;;6310071;22;20011;-85
2023/09/25 20:13:31;;;;;;;10.82;3.42;;;14.50;99.90;;;;;;6310992;22;20105;-85
2023/09/25 20:15:56;;;;;;;9.98;3.60;;;13.60;99.90;;;;;;6311465;22;20060;-85
2023/09/25 20:18:22;;;;;;;8.80;3.40;;;14.40;99.90;;;;;;6310210;22;20018;-86
2023/09/25 20:20:50;;;;;;;9.93;3.50;;;13.50;99.90;;;;;;6311091;22;20048;-85
2023/09/25 20:23:15;;;;;;;10.27;4.30;;;13.50;99.90;;;;;;6310992;22;20098;-85
2023/09/25 20:25:41;;;;;;;8.88;3.60;;;13.50;99.90;;;;;;6309406;22;20423;-85
2023/09/25 20:28:07;;;;;;;8.35;3.40;;;13.50;99.90;;;;;;6310964;22;20443;-85
2023/09/25 20:30:32;;;;;;;9.05;3.47;;;13.50;99.90;;;;;;6310799;22;20446;-85
2023/09/25 20:35:56;;;;;;;8.93;3.55;;;13.30;99.90;;;;;;6293045;22;20020;-85
2023/09/25 20:38:23;;;;;;;9.02;3.60;;;14.20;99.90;;;;;;6274430;22;20023;-85
2023/09/25 20:40:49;;;;;;;7.88;3.60;;;13.20;99.90;;;;;;6274215;22;20007;-85
2023/09/25 20:43:15;;;;;;;10.55;4.10;;;13.30;99.90;;;;;;6274775;22;20104;-86
2023/09/25 20:45:40;;;;;;;9.65;4.00;;;13.30;99.90;;;;;;6273097;22;20557;-85
2023/09/25 20:48:06;;;;;;;10.30;3.60;;;13.20;99.90;;;;;;6274082;22;20016;-85
2023/09/25 20:50:32;;;;;;;8.95;3.83;;;13.20;99.90;;;;;;6274351;22;20367;-85
2023/09/25 20:53:02;;;;;;;9.48;3.80;;;13.20;99.90;;;;;;6273722;22;20027;-85
2023/09/25 20:55:31;;;;;;;8.98;4.20;;;13.20;99.90;;;;;;6274056;22;20020;-85
2023/09/25 20:57:59;;;;;;;9.82;3.95;;;13.20;99.90;;;;;;6274651;22;20011;-85
2023/09/25 21:00:27;;;;;;;9.27;4.03;;;13.10;99.90;;;;;;6272997;22;20016;-85
2023/09/25 21:02:53;;;;;;;10.10;4.05;;;13.90;99.90;;;;;;6274543;22;20462;-85
2023/09/25 21:05:19;;;;;;;9.45;4.10;;;13.10;99.90;;;;;;6272774;22;20016;-86
2023/09/25 21:07:45;;;;;;;10.50;4.50;;;14.00;99.90;;;;;;6273424;22;20023;-85
2023/09/25 21:10:12;;;;;;;10.10;4.35;;;13.10;99.90;;;;;;6274274;22;20012;-86
2023/09/25 21:12:38;;;;;;;10.10;3.90;;;13.10;99.90;;;;;;6274546;22;20050;-85
2023/09/25 21:15:04;;;;;;;9.90;4.32;;;13.30;99.90;;;;;;6273245;22;20015;-85
2023/09/25 21:17:30;;;;;;;9.55;4.40;;;13.00;99.90;;;;;;6274779;22;20062;-86
2023/09/25 21:20:01;;;;;;;10.38;4.88;;;14.00;99.90;;;;;;6273976;22;20019;-85
2023/09/25 21:22:30;;;;;;;11.95;4.93;;;12.90;99.90;;;;;;6273536;22;20028;-86
2023/09/25 21:25:17;;;;;;;10.20;4.68;;;12.90;99.90;;;;;;6274364;22;20023;-86
2023/09/25 21:27:49;;;;;;;10.70;4.30;;;12.90;99.90;;;;;;6273987;22;20020;-85
2023/09/25 21:33:55;;;;;;;10.40;4.38;;;12.20;99.90;;;;;;6289215;22;20064;-85
2023/09/25 21:36:21;;;;;;;10.07;4.57;;;12.80;99.90;;;;;;6304126;22;20022;-86
2023/09/25 21:38:48;;;;;;;10.27;4.70;;;14.00;99.90;;;;;;6305183;22;20341;-86
2023/09/25 21:41:14;;;;;;;10.27;4.60;;;12.80;99.90;;;;;;6304341;22;20445;-86
2023/09/25 21:44:26;;;;;;;10.07;4.50;;;12.90;99.90;;;;;;6241504;23;20023;-85
2023/09/25 21:46:58;;;;;;;9.20;4.45;;;12.80;99.90;;;;;;6242236;23;20054;-86
2023/09/25 21:49:35;;;;;;;12.38;4.78;;;12.70;99.90;;;;;;6241767;23;20718;-85
2023/09/25 21:52:03;;;;;;;10.80;5.30;;;12.20;99.90;;;;;;6243172;23;20020;-85
2023/09/25 21:54:29;;;;;;;11.75;5.22;;;12.70;99.90;;;;;;6242796;23;20487;-85
2023/09/25 21:56:54;;;;;;;11.27;5.47;;;12.60;99.90;;;;;;6241941;23;20047;-86
2023/09/25 21:59:20;;;;;;;10.82;5.95;;;12.60;99.90;;;;;;6242604;23;20023;-86
2023/09/25 22:01:46;;;;;;;12.70;6.38;;;13.40;99.90;;;;;;6242226;23;20016;-86
2023/09/25 22:04:11;;;;;;;11.88;6.35;;;12.60;99.90;;;;;;6241539;23;20022;-85
2023/09/25 22:06:37;;;;;;;12.40;6.00;;;13.00;99.90;;;;;;6242854;23;20107;-86
2023/09/25 22:09:05;;;;;;;12.02;6.18;;;12.50;99.90;;;;;;6242729;23;20095;-86
2023/09/25 22:11:30;;;;;;;10.73;6.18;;;12.50;99.90;;;;;;6242483;23;20012;-86
2023/09/25 22:13:56;;;;;;;11.40;6.10;;;12.80;99.90;;;;;;6229795;22;20335;-86
2023/09/25 22:16:22;;;;;;;13.90;6.05;;;12.40;99.90;;;;;;6304891;22;20810;-86
2023/09/25 22:18:47;;;;;;;10.77;5.90;;;12.50;99.90;;;;;;6304915;22;20094;-85
2023/09/25 22:21:17;;;;;;;12.20;6.43;;;12.40;99.90;;;;;;6305196;22;20332;-85
2023/09/25 22:23:44;;;;;;;12.35;6.47;;;13.10;99.90;;;;;;6305088;22;20022;-85
2023/09/25 22:26:10;;;;;;;11.05;6.05;;;12.80;99.90;;;;;;6304306;22;20016;-86
2023/09/25 22:28:38;;;;;;;13.48;6.63;;;13.20;99.90;;;;;;6305074;22;20026;-85
2023/09/25 22:31:18;;;;;;;11.23;6.50;;;12.40;99.90;;;;;;6304550;22;20078;-85
2023/09/25 22:33:45;;;;;;;13.23;6.40;;;12.40;99.90;;;;;;6304965;22;20033;-85
2023/09/25 22:36:11;;;;;;;13.52;7.05;;;12.60;99.90;;;;;;6304498;22;20007;-86
2023/09/25 22:38:37;;;;;;;11.43;6.55;;;12.80;99.90;;;;;;6305014;22;20096;-85
2023/09/25 22:41:03;;;;;;;12.55;6.85;;;12.40;99.90;;;;;;6305129;22;20022;-85
2023/09/25 22:43:29;;;;;;;12.57;7.55;;;12.50;99.90;;;;;;6305964;22;20027;-85